createdAt,value
2023-05-22T00:02:27.616Z,1766
2023-05-22T00:07:46.232Z,1805
2023-05-22T00:13:04.642Z,1829
2023-05-22T00:18:23.010Z,1850
2023-05-22T00:23:41.436Z,1869
2023-05-22T00:28:59.701Z,1883
2023-05-22T00:34:17.808Z,1897
2023-05-22T00:39:36.257Z,1914
2023-05-22T00:44:54.420Z,1931
2023-05-22T00:50:12.768Z,1941
2023-05-22T00:55:30.989Z,1945
2023-05-22T01:00:49.137Z,1935
2023-05-22T01:06:07.591Z,1927
2023-05-22T01:11:26.162Z,1923
2023-05-22T01:16:44.575Z,1924
2023-05-22T01:22:02.912Z,1932
2023-05-22T01:27:21.153Z,1952
2023-05-22T01:32:39.532Z,1945
2023-05-22T01:37:58.106Z,1956
2023-05-22T01:43:16.493Z,1938
2023-05-22T01:48:35.050Z,1928
2023-05-22T01:53:53.433Z,1929
2023-05-22T01:59:11.991Z,1917
2023-05-22T02:04:30.369Z,1914
2023-05-22T02:09:48.956Z,1913
2023-05-22T02:15:07.417Z,1914
2023-05-22T02:20:25.738Z,1907
2023-05-22T02:25:43.767Z,1902
2023-05-22T02:31:01.937Z,1920
2023-05-22T02:36:20.414Z,1931
2023-05-22T02:41:38.615Z,1931
2023-05-22T02:46:57.200Z,1934
2023-05-22T02:52:15.891Z,1921
2023-05-22T02:57:34.136Z,1917
2023-05-22T03:02:52.371Z,1909
2023-05-22T03:08:11.048Z,1904
2023-05-22T03:13:29.217Z,1903
2023-05-22T03:18:47.693Z,1887
2023-05-22T03:24:05.904Z,1889
2023-05-22T03:29:23.900Z,1893
2023-05-22T03:34:42.209Z,1890
2023-05-22T03:40:00.725Z,1884
2023-05-22T03:45:19.264Z,1879
2023-05-22T03:50:37.724Z,1896
2023-05-22T03:55:56.589Z,1865
2023-05-22T04:01:14.968Z,1829
2023-05-22T04:06:33.623Z,1787
2023-05-22T04:11:51.947Z,1764
2023-05-22T04:17:10.203Z,1764
2023-05-22T04:22:28.515Z,1767
2023-05-22T04:27:46.874Z,1751
2023-05-22T04:33:05.235Z,1746
2023-05-22T04:38:23.772Z,1256
2023-05-22T04:43:41.945Z,1124
2023-05-22T04:49:00.164Z,1055
2023-05-22T04:54:18.792Z,1054
2023-05-22T04:59:37.613Z,1104
2023-05-22T05:04:55.927Z,1150
2023-05-22T05:10:14.361Z,1185
2023-05-22T05:15:32.699Z,1225
2023-05-22T05:20:50.691Z,1248
2023-05-22T05:31:37.657Z,1279
2023-05-22T05:36:55.972Z,1275
2023-05-22T05:42:15.625Z,1275
2023-05-22T05:47:34.030Z,1284
2023-05-22T05:52:53.890Z,1285
2023-05-22T05:58:12.441Z,1301
2023-05-22T06:03:30.910Z,1304
2023-05-22T06:08:49.735Z,1304
2023-05-22T06:14:09.317Z,1303
2023-05-22T06:19:27.537Z,1311
2023-05-22T06:30:10.206Z,1320
2023-05-22T06:35:28.750Z,1326
2023-05-22T06:40:47.329Z,1339
2023-05-22T06:46:05.730Z,1345
2023-05-22T06:51:24.959Z,1344
2023-05-22T06:56:43.616Z,1344
2023-05-22T07:01:46.383Z,1342
2023-05-22T07:07:04.827Z,1342
2023-05-22T07:12:23.386Z,1336
2023-05-22T07:17:42.051Z,1333
2023-05-22T07:23:00.458Z,1323
2023-05-22T07:28:19.008Z,1314
2023-05-22T07:33:37.987Z,1302
2023-05-22T07:38:56.325Z,1289
2023-05-22T07:44:14.691Z,1278
2023-05-22T07:49:33.832Z,1286
2023-05-22T07:54:52.191Z,1285
2023-05-22T08:00:10.538Z,1266
2023-05-22T08:05:29.488Z,1247
2023-05-22T08:11:02.822Z,1158
2023-05-22T08:16:22.884Z,973
2023-05-22T08:21:41.701Z,872
2023-05-22T08:27:00.039Z,860
2023-05-22T08:32:18.289Z,824
2023-05-22T08:37:36.769Z,751
2023-05-22T08:42:55.517Z,708
2023-05-22T08:48:14.059Z,676
2023-05-22T08:53:32.702Z,641
2023-05-22T08:58:50.950Z,581
2023-05-22T09:04:09.361Z,539
2023-05-22T09:09:27.922Z,511
2023-05-22T09:14:46.393Z,485
2023-05-22T09:20:04.882Z,477
2023-05-22T09:25:23.217Z,455
2023-05-22T09:30:42.362Z,455
2023-05-22T09:36:01.663Z,462
2023-05-22T09:41:20.671Z,483
2023-05-22T09:46:38.837Z,504
2023-05-22T09:51:57.187Z,518
2023-05-22T09:57:15.905Z,535
2023-05-22T10:02:34.404Z,545
2023-05-22T10:07:52.441Z,556
2023-05-22T10:13:10.726Z,567
2023-05-22T10:18:28.718Z,576
2023-05-22T10:23:46.836Z,588
2023-05-22T10:29:05.859Z,597
2023-05-22T10:34:23.868Z,603
2023-05-22T10:39:41.988Z,610
2023-05-22T10:45:00.838Z,625
2023-05-22T10:50:18.813Z,637
2023-05-22T10:55:37.551Z,642
2023-05-22T11:00:56.306Z,657
2023-05-22T11:06:14.791Z,656
2023-05-22T11:11:33.577Z,670
2023-05-22T11:16:52.342Z,672
2023-05-22T11:22:10.863Z,676
2023-05-22T11:27:29.188Z,680
2023-05-22T11:32:47.727Z,686
2023-05-22T11:38:06.522Z,694
2023-05-22T11:43:25.167Z,699
2023-05-22T11:48:43.587Z,718
2023-05-22T11:54:01.797Z,728
2023-05-22T11:59:21.049Z,737
2023-05-22T12:04:39.720Z,738
2023-05-22T12:09:57.801Z,738
2023-05-22T12:15:15.980Z,739
2023-05-22T12:20:34.649Z,744
2023-05-22T12:25:52.993Z,746
2023-05-22T12:31:10.986Z,746
2023-05-22T12:36:29.321Z,743
2023-05-22T12:41:32.180Z,746
2023-05-22T12:46:50.539Z,746
2023-05-22T12:52:09.440Z,754
2023-05-22T12:57:28.000Z,755
2023-05-22T13:02:46.661Z,760
2023-05-22T13:08:05.795Z,763
2023-05-22T13:13:24.526Z,772
2023-05-22T13:18:43.066Z,777
2023-05-22T13:24:01.907Z,780
2023-05-22T13:29:20.080Z,793
2023-05-22T13:34:22.817Z,797
2023-05-22T13:39:42.082Z,837
2023-05-22T13:45:00.300Z,853
2023-05-22T13:50:18.825Z,724
2023-05-22T13:55:37.409Z,625
2023-05-22T14:00:56.734Z,580
2023-05-22T14:06:15.392Z,554
2023-05-22T14:11:34.079Z,524
2023-05-22T14:16:36.985Z,510
2023-05-22T14:21:40.308Z,507
2023-05-22T14:26:58.994Z,533
2023-05-22T14:32:17.182Z,536
2023-05-22T14:37:35.554Z,556
2023-05-22T14:42:54.582Z,597
2023-05-22T14:48:12.782Z,623
2023-05-22T14:53:31.013Z,677
2023-05-22T14:58:49.748Z,669
2023-05-22T15:03:52.358Z,667
2023-05-22T15:09:10.472Z,682
2023-05-22T15:14:29.380Z,707
2023-05-22T15:19:47.936Z,722
2023-05-22T15:25:06.082Z,699
2023-05-22T15:30:25.007Z,643
2023-05-22T15:35:43.873Z,567
2023-05-22T15:41:02.384Z,544
2023-05-22T15:46:21.234Z,566
2023-05-22T15:51:39.780Z,553
2023-05-22T15:56:58.369Z,490
2023-05-22T16:02:17.499Z,477
2023-05-22T16:07:35.894Z,476
2023-05-22T16:12:54.037Z,497
2023-05-22T16:18:12.571Z,496
2023-05-22T16:23:30.658Z,496
2023-05-22T16:28:49.236Z,500
2023-05-22T16:33:52.169Z,501
2023-05-22T16:39:14.836Z,530
2023-05-22T16:44:33.247Z,584
2023-05-22T16:49:52.657Z,618
2023-05-22T16:55:11.370Z,649
2023-05-22T17:00:29.748Z,670
2023-05-22T17:05:48.994Z,710
2023-05-22T17:11:07.279Z,776
2023-05-22T17:16:25.615Z,803
2023-05-22T17:21:44.740Z,821
2023-05-22T17:27:03.022Z,808
2023-05-22T17:32:21.180Z,793
2023-05-22T17:37:40.774Z,740
2023-05-22T17:42:59.316Z,701
2023-05-22T17:48:17.916Z,573
2023-05-22T17:53:39.112Z,520
2023-05-22T17:58:57.815Z,470
2023-05-22T18:04:16.751Z,454
2023-05-22T18:09:35.474Z,457
2023-05-22T18:14:53.912Z,435
2023-05-22T18:20:12.503Z,470
2023-05-22T18:25:32.209Z,535
2023-05-22T18:30:50.621Z,580
2023-05-22T18:36:09.306Z,619
2023-05-22T18:41:28.145Z,646
2023-05-22T18:46:46.476Z,666
2023-05-22T18:52:05.227Z,675
2023-05-22T18:57:23.747Z,692
2023-05-22T19:02:42.340Z,705
2023-05-22T19:08:00.807Z,723
2023-05-22T19:13:19.972Z,757
2023-05-22T19:18:38.477Z,810
2023-05-22T19:23:56.618Z,840
2023-05-22T19:29:14.970Z,861
2023-05-22T19:34:33.393Z,885
2023-05-22T19:39:54.525Z,932
2023-05-22T19:45:13.327Z,962
2023-05-22T19:50:34.497Z,997
2023-05-22T19:55:52.985Z,1026
2023-05-22T20:01:11.645Z,1046
2023-05-22T20:06:30.334Z,1062
2023-05-22T20:11:49.963Z,1065
2023-05-22T20:17:08.527Z,1096
2023-05-22T20:22:26.886Z,1147
2023-05-22T20:27:45.037Z,1168
2023-05-22T20:33:03.679Z,1189
2023-05-22T20:38:22.738Z,1005
2023-05-22T20:43:41.140Z,1083
2023-05-22T20:49:00.066Z,1139
2023-05-22T20:54:18.700Z,1184
2023-05-22T20:59:37.231Z,1218
2023-05-22T21:04:55.942Z,1244
2023-05-22T21:10:14.329Z,1257
2023-05-22T21:15:32.705Z,1274
2023-05-22T21:20:51.459Z,1284
2023-05-22T21:26:09.644Z,1290
2023-05-22T21:31:28.399Z,1301
2023-05-22T21:36:47.284Z,1304
2023-05-22T21:42:05.640Z,1313
2023-05-22T21:47:24.191Z,1325
2023-05-22T21:52:43.156Z,1318
2023-05-22T21:58:01.489Z,1325
2023-05-22T22:03:19.876Z,1325
2023-05-22T22:08:39.059Z,1326
2023-05-22T22:13:57.794Z,1321
2023-05-22T22:19:16.136Z,1325
2023-05-22T22:24:35.076Z,1321
2023-05-22T22:29:53.481Z,1325
2023-05-22T22:35:11.457Z,1337
2023-05-22T22:40:30.144Z,1372
2023-05-22T22:45:48.331Z,1412
2023-05-22T22:51:06.732Z,1443
2023-05-22T22:56:25.232Z,1479
2023-05-22T23:01:43.797Z,1512
2023-05-22T23:07:02.009Z,1535
2023-05-22T23:12:20.773Z,1538
2023-05-22T23:17:38.825Z,1542
2023-05-22T23:22:56.973Z,1558
2023-05-22T23:28:15.546Z,1575
2023-05-22T23:33:33.976Z,1594
2023-05-22T23:38:52.338Z,1606
2023-05-22T23:44:11.282Z,1612
2023-05-22T23:49:29.400Z,1641
2023-05-22T23:54:47.929Z,1663
